Riverton, IL

2:29 PM CDT on March 26, 2015 (GMT -0500)
Decatur | Change Station
CLOSE
Current Station
Airport
Location: Decatur,
Elevation: 682 ft
Nearby Weather Stations

Elev 682 ft 39.83 °N, 88.87 °W | Updated 35 minutes ago

Partly Cloudy
Partly Cloudy
44 °F
Feels Like 36 °F
N
17
Wind Variable Wind from WNW
Gusts 22 mph

Today
High -- | Low -- °F
--% Chance of Precip.
Yesterday
High -- | Low -- °F
Precip. -- in
6:52 AM 7:15 PM
Waxing Crescent, 45% visible
Pressure 30.02 in
Visibility 10.0 miles
Clouds Clear
Windchill 36 °F
Dew Point 29 °F
Humidity 55%
Rainfall 0.31 in
Snow Depth Not available.
UV 8 out of 12
Pollen 3.30 out of 12
Air Quality Not available.
Flu Activity Not available.
METAR KDEC 261854Z 30015G19KT 10SM CLR 07/M02 A3001 RMK AO2 SLP166 T00671017

More Conditions Fewer Conditions

Pressure 30.02 in
Visibility 10.0 miles
Clouds Clear
Windchill 36 °F
Dew Point 29 °F
Humidity 55%
Rainfall 0.31 in
Snow Depth Not available.
UV 8 out of 12
Pollen 3.30 out of 12
Air Quality Not available.
Flu Activity Not available.
METAR KDEC 261854Z 30015G19KT 10SM CLR 07/M02 A3001 RMK AO2 SLP166 T00671017

More Conditions Fewer Conditions

10-Day Weather Forecast

Almanac

Astronomy

Mar. 26, 2015 Rise Set
Actual Time
Civil Twilight
Nautical Twilight
Astronomical Twilight
Moon
Length of Visible Light
Length of Day
Tomorrow will be .
, % of the Moon is Illuminated

Today's Extremes

State Highs State Lows

Community

WunderPhotos

Upload Photos

1,808,605 photos uploaded!

WunderBlogs® & News

Nearby

Air Quality

  Air Quality AQ Index Pollutant
Not available.

Snow Depth

Station Depth Elevation

Earthquake Activity

City Distance Mag. Time & Date
Minimum magnitude displayed is 2.5.

Coastal Water Temperatures

Place Temperature

Stations

Nearby Weather Stations

Station Location Temp. Windchill Dew Point Humidity Wind Precip. Elev Updated Type